createdAt,value
2023-04-30T00:01:29.951Z,97105.00
2023-04-30T00:03:57.380Z,97116.00
2023-04-30T00:06:26.240Z,97096.00
2023-04-30T00:08:55.582Z,97100.00
2023-04-30T00:11:22.757Z,97103.00
2023-04-30T00:13:50.694Z,97098.00
2023-04-30T00:16:18.161Z,97094.00
2023-04-30T00:18:45.590Z,97085.00
2023-04-30T00:21:12.748Z,97081.00
2023-04-30T00:23:39.932Z,97091.00
2023-04-30T00:26:07.136Z,97093.00
2023-04-30T00:28:34.361Z,97090.00
2023-04-30T00:31:01.525Z,97081.00
2023-04-30T00:33:28.848Z,97094.00
2023-04-30T00:35:56.008Z,97098.00
2023-04-30T00:38:23.217Z,97092.00
2023-04-30T00:40:50.597Z,97095.00
2023-04-30T00:43:17.794Z,97094.00
2023-04-30T00:45:45.046Z,97094.00
2023-04-30T00:48:12.286Z,97091.00
2023-04-30T00:50:39.503Z,97087.00
2023-04-30T00:53:06.660Z,97083.00
2023-04-30T00:55:33.865Z,97075.00
2023-04-30T00:58:01.206Z,97080.00
2023-04-30T01:00:28.777Z,97066.00
2023-04-30T01:02:56.953Z,97066.00
2023-04-30T01:05:24.292Z,97055.00
2023-04-30T01:07:51.776Z,97048.00
2023-04-30T01:10:19.645Z,97043.00
2023-04-30T01:13:15.817Z,97035.00
2023-04-30T01:16:04.720Z,97034.00
2023-04-30T01:18:42.277Z,97029.00
2023-04-30T01:21:10.018Z,97033.00
2023-04-30T01:24:08.074Z,97036.00
2023-04-30T01:27:10.604Z,97026.00
2023-04-30T01:29:40.381Z,97023.00
2023-04-30T01:32:07.556Z,97031.00
2023-04-30T01:34:44.840Z,97026.00
2023-04-30T01:37:43.854Z,97029.00
2023-04-30T01:40:47.998Z,97023.00
2023-04-30T01:47:17.178Z,97036.00
2023-04-30T01:53:27.820Z,97031.00
2023-04-30T01:56:59.319Z,97032.00
2023-04-30T02:00:00.224Z,97034.00
2023-04-30T02:02:27.511Z,97037.00
2023-04-30T02:04:54.724Z,97041.00
2023-04-30T02:07:38.680Z,97031.00
2023-04-30T02:10:07.254Z,97040.00
2023-04-30T02:12:34.934Z,97030.00
2023-04-30T02:15:03.295Z,97031.00
2023-04-30T02:17:31.324Z,97030.00
2023-04-30T02:19:59.084Z,97030.00
2023-04-30T02:22:26.568Z,97034.00
2023-04-30T02:24:55.679Z,97036.00
2023-04-30T02:27:24.261Z,97033.00
2023-04-30T02:29:51.631Z,97035.00
2023-04-30T02:32:19.222Z,97036.00
2023-04-30T02:34:46.508Z,97031.00
2023-04-30T02:37:13.732Z,97042.00
2023-04-30T02:39:41.222Z,97032.00
2023-04-30T02:42:08.800Z,97029.00
2023-04-30T02:44:36.026Z,97031.00
2023-04-30T02:47:03.227Z,97025.00
2023-04-30T02:49:30.609Z,97031.00
2023-04-30T02:51:57.799Z,97026.00
2023-04-30T02:54:25.065Z,97026.00
2023-04-30T02:56:52.285Z,97017.00
2023-04-30T02:59:19.466Z,97010.00
2023-04-30T03:01:47.144Z,97027.00
2023-04-30T03:04:14.415Z,97026.00
2023-04-30T03:06:41.628Z,97030.00
2023-04-30T03:09:08.872Z,97014.00
2023-04-30T03:11:37.728Z,97028.00
2023-04-30T03:14:05.248Z,97014.00
2023-04-30T03:16:32.473Z,97017.00
2023-04-30T03:18:59.668Z,97019.00
2023-04-30T03:21:26.834Z,97019.00
2023-04-30T03:23:54.023Z,97020.00
2023-04-30T03:26:22.005Z,97019.00
2023-04-30T03:28:49.521Z,97004.00
2023-04-30T03:31:16.959Z,97018.00
2023-04-30T03:33:44.310Z,97009.00
2023-04-30T03:36:11.749Z,97015.00
2023-04-30T03:38:38.941Z,97012.00
2023-04-30T03:41:06.400Z,97017.00
2023-04-30T03:43:34.450Z,97002.00
2023-04-30T03:46:01.662Z,97012.00
2023-04-30T03:48:28.868Z,96997.00
2023-04-30T03:50:56.065Z,96997.00
2023-04-30T03:53:24.473Z,96997.00
2023-04-30T03:55:51.642Z,96983.00
2023-04-30T03:58:18.853Z,96998.00
2023-04-30T04:00:46.055Z,96987.00
2023-04-30T04:03:13.513Z,96998.00
2023-04-30T04:05:41.015Z,97000.00
2023-04-30T04:08:08.517Z,96997.00
2023-04-30T04:10:36.123Z,96998.00
2023-04-30T04:13:03.448Z,96998.00
2023-04-30T04:15:31.019Z,96992.00
2023-04-30T04:17:58.309Z,96997.00
2023-04-30T04:20:25.643Z,96993.00
2023-04-30T04:22:52.817Z,96993.00
2023-04-30T04:25:20.550Z,96992.00
2023-04-30T04:27:47.709Z,96991.00
2023-04-30T04:30:15.075Z,96998.00
2023-04-30T04:32:46.602Z,97001.00
2023-04-30T04:35:18.895Z,96991.00
2023-04-30T04:37:46.073Z,97004.00
2023-04-30T04:40:13.717Z,97005.00
2023-04-30T04:42:40.951Z,97006.00
2023-04-30T04:45:08.554Z,97002.00
2023-04-30T04:47:36.505Z,97003.00
2023-04-30T04:50:03.830Z,97003.00
2023-04-30T04:52:31.018Z,97014.00
2023-04-30T04:54:58.193Z,97017.00
2023-04-30T04:57:25.710Z,97015.00
2023-04-30T04:59:53.165Z,97012.00
2023-04-30T05:02:21.241Z,97017.00
2023-04-30T05:04:50.427Z,97014.00
2023-04-30T05:07:18.283Z,97018.00
2023-04-30T05:09:48.995Z,97014.00
2023-04-30T05:12:16.174Z,97023.00
2023-04-30T05:14:43.925Z,97021.00
2023-04-30T05:17:11.154Z,97013.00
2023-04-30T05:19:38.328Z,97018.00
2023-04-30T05:22:05.770Z,97013.00
2023-04-30T05:24:32.939Z,97015.00
2023-04-30T05:27:00.284Z,97014.00
2023-04-30T05:29:27.465Z,97010.00
2023-04-30T05:31:54.800Z,97015.00
2023-04-30T05:34:22.073Z,97014.00
2023-04-30T05:36:49.464Z,97019.00
2023-04-30T05:39:16.617Z,97016.00
2023-04-30T05:41:43.861Z,97014.00
2023-04-30T05:44:11.018Z,97015.00
2023-04-30T05:46:38.245Z,97015.00
2023-04-30T05:49:05.474Z,97018.00
2023-04-30T05:51:32.730Z,97001.00
2023-04-30T05:54:00.386Z,97003.00
2023-04-30T05:56:27.568Z,97000.00
2023-04-30T05:58:54.753Z,96999.00
2023-04-30T06:01:23.090Z,96996.00
2023-04-30T06:03:50.442Z,97000.00
2023-04-30T06:06:17.597Z,96993.00
2023-04-30T06:08:45.539Z,96996.00
2023-04-30T06:11:13.679Z,96988.00
2023-04-30T06:13:41.119Z,96990.00
2023-04-30T06:16:08.716Z,96986.00
2023-04-30T06:18:36.184Z,96988.00
2023-04-30T06:21:03.468Z,96984.00
2023-04-30T06:23:30.684Z,96980.00
2023-04-30T06:25:57.952Z,96987.00
2023-04-30T06:28:25.487Z,97002.00
2023-04-30T06:30:54.262Z,96990.00
2023-04-30T06:33:21.724Z,96999.00
2023-04-30T06:35:50.917Z,96992.00
2023-04-30T06:38:18.245Z,96997.00
2023-04-30T06:40:45.451Z,96996.00
2023-04-30T06:43:12.611Z,97000.00
2023-04-30T06:45:40.342Z,97008.00
2023-04-30T06:48:07.785Z,97006.00
2023-04-30T06:50:35.095Z,96992.00
2023-04-30T06:53:02.848Z,97007.00
2023-04-30T06:55:30.223Z,97008.00
2023-04-30T06:57:57.961Z,96999.00
2023-04-30T07:00:25.296Z,97013.00
2023-04-30T07:02:52.639Z,97000.00
2023-04-30T07:05:19.979Z,96996.00
2023-04-30T07:07:47.199Z,96997.00
2023-04-30T07:10:14.390Z,97001.00
2023-04-30T07:12:41.606Z,97006.00
2023-04-30T07:15:09.218Z,97001.00
2023-04-30T07:17:37.195Z,96991.00
2023-04-30T07:20:05.248Z,97001.00
2023-04-30T07:22:32.962Z,96993.00
2023-04-30T07:25:00.690Z,96996.00
2023-04-30T07:27:28.421Z,96999.00
2023-04-30T07:29:56.332Z,96997.00
2023-04-30T07:32:26.858Z,96985.00
2023-04-30T07:34:54.504Z,96987.00
2023-04-30T07:37:21.989Z,96988.00
2023-04-30T07:39:49.345Z,96989.00
2023-04-30T07:42:16.606Z,96990.00
2023-04-30T07:44:43.936Z,96984.00
2023-04-30T07:47:11.206Z,96985.00
2023-04-30T07:49:38.358Z,96991.00
2023-04-30T07:52:06.037Z,96992.00
2023-04-30T07:54:36.416Z,97001.00
2023-04-30T07:57:03.692Z,96997.00
2023-04-30T07:59:31.117Z,97004.00
2023-04-30T08:01:58.811Z,96999.00
2023-04-30T08:04:26.270Z,97001.00
2023-04-30T08:06:53.564Z,97007.00
2023-04-30T08:09:20.810Z,97006.00
2023-04-30T08:11:48.064Z,97008.00
2023-04-30T08:14:15.281Z,97010.00
2023-04-30T08:16:42.490Z,97014.00
2023-04-30T08:19:09.641Z,97017.00
2023-04-30T08:21:40.109Z,97023.00
2023-04-30T08:24:07.293Z,97021.00
2023-04-30T08:26:34.467Z,97027.00
2023-04-30T08:29:01.675Z,97027.00
2023-04-30T08:31:28.938Z,97039.00
2023-04-30T08:33:56.210Z,97037.00
2023-04-30T08:36:29.096Z,97040.00
2023-04-30T08:39:06.418Z,97025.00
2023-04-30T08:41:43.100Z,97039.00
2023-04-30T08:44:24.616Z,97039.00
2023-04-30T08:46:58.922Z,97046.00
2023-04-30T08:49:27.095Z,97044.00
2023-04-30T08:52:05.262Z,97052.00
2023-04-30T08:54:44.548Z,97062.00
2023-04-30T08:57:21.936Z,97051.00
2023-04-30T09:00:28.215Z,97056.00
2023-04-30T09:02:55.452Z,97049.00
2023-04-30T09:05:22.764Z,97058.00
2023-04-30T09:08:02.429Z,97054.00
2023-04-30T09:10:56.036Z,97050.00
2023-04-30T09:13:53.269Z,97051.00
2023-04-30T09:16:53.483Z,97062.00
2023-04-30T09:19:52.181Z,97058.00
2023-04-30T09:22:51.461Z,97051.00
2023-04-30T09:25:51.799Z,97044.00
2023-04-30T09:28:51.660Z,97046.00
2023-04-30T09:31:52.063Z,97036.00
2023-04-30T09:34:52.996Z,97032.00
2023-04-30T09:37:20.192Z,97029.00
2023-04-30T09:39:52.186Z,97029.00
2023-04-30T09:42:20.136Z,97034.00
2023-04-30T09:44:48.193Z,97028.00
2023-04-30T09:47:19.785Z,97023.00
2023-04-30T09:49:54.211Z,97034.00
2023-04-30T09:52:21.861Z,97031.00
2023-04-30T09:54:49.528Z,97022.00
2023-04-30T09:57:17.038Z,97024.00
2023-04-30T09:59:46.003Z,97027.00
2023-04-30T10:02:16.138Z,97020.00
2023-04-30T10:04:45.512Z,97024.00
2023-04-30T10:07:22.457Z,97016.00
2023-04-30T10:09:58.549Z,97020.00
2023-04-30T10:12:43.240Z,97009.00
2023-04-30T10:15:16.900Z,97009.00
2023-04-30T10:17:47.795Z,97016.00
2023-04-30T10:20:15.054Z,97004.00
2023-04-30T10:22:43.696Z,96997.00
2023-04-30T10:25:13.367Z,96998.00
2023-04-30T10:27:40.655Z,96986.00
2023-04-30T10:30:11.711Z,96989.00
2023-04-30T10:32:49.496Z,96985.00
2023-04-30T10:36:02.727Z,96996.00
2023-04-30T10:38:32.408Z,96993.00
2023-04-30T10:41:01.388Z,96988.00
2023-04-30T10:43:31.578Z,96987.00
2023-04-30T10:45:59.445Z,96988.00
2023-04-30T10:48:27.414Z,96996.00
2023-04-30T10:50:59.122Z,96985.00
2023-04-30T10:53:28.596Z,96987.00
2023-04-30T10:55:59.701Z,96992.00
2023-04-30T10:58:38.355Z,96991.00
2023-04-30T11:01:18.174Z,96983.00
2023-04-30T11:04:08.194Z,96992.00
2023-04-30T11:06:56.545Z,96987.00
2023-04-30T11:09:40.034Z,96974.00
2023-04-30T11:12:15.433Z,96975.00
2023-04-30T11:14:44.425Z,96973.00
2023-04-30T11:17:13.539Z,96976.00
2023-04-30T11:19:48.660Z,96966.00
2023-04-30T11:22:17.658Z,96960.00
2023-04-30T11:25:09.568Z,96959.00
2023-04-30T11:27:38.015Z,96969.00
2023-04-30T11:30:12.502Z,96958.00
2023-04-30T11:32:40.770Z,96958.00
2023-04-30T11:35:08.633Z,96961.00
2023-04-30T11:37:40.727Z,96966.00
2023-04-30T11:40:11.012Z,96969.00
2023-04-30T11:42:40.092Z,96968.00
2023-04-30T11:45:12.119Z,96970.00
2023-04-30T11:47:50.505Z,96953.00
2023-04-30T11:50:29.180Z,96959.00
2023-04-30T11:52:59.007Z,96962.00
2023-04-30T11:55:27.102Z,96964.00
2023-04-30T11:57:56.012Z,96963.00
2023-04-30T12:00:28.596Z,96956.00
2023-04-30T12:02:56.687Z,96958.00
2023-04-30T12:05:25.825Z,96964.00
2023-04-30T12:08:06.366Z,96964.00
2023-04-30T12:10:33.646Z,96962.00
2023-04-30T12:13:00.826Z,96969.00
2023-04-30T12:15:28.879Z,96967.00
2023-04-30T12:17:58.061Z,96959.00
2023-04-30T12:20:27.023Z,96967.00
2023-04-30T12:22:54.440Z,96962.00
2023-04-30T12:25:22.785Z,96954.00
2023-04-30T12:27:54.089Z,96958.00
2023-04-30T12:30:23.369Z,96960.00
2023-04-30T12:32:52.101Z,96961.00
2023-04-30T12:35:21.101Z,96950.00
2023-04-30T12:37:51.241Z,96941.00
2023-04-30T12:40:26.240Z,96939.00
2023-04-30T12:43:07.295Z,96932.00
2023-04-30T12:45:55.086Z,96938.00
2023-04-30T12:48:24.380Z,96943.00
2023-04-30T12:50:59.958Z,96950.00
2023-04-30T12:53:27.629Z,96946.00
2023-04-30T12:56:17.478Z,96946.00
2023-04-30T12:58:47.549Z,96936.00
2023-04-30T13:01:21.904Z,96943.00
2023-04-30T13:03:49.397Z,96934.00
2023-04-30T13:06:17.006Z,96934.00
2023-04-30T13:08:57.889Z,96933.00
2023-04-30T13:11:27.107Z,96945.00
2023-04-30T13:13:55.777Z,96947.00
2023-04-30T13:16:24.602Z,96942.00
2023-04-30T13:18:52.439Z,96936.00
2023-04-30T13:21:20.619Z,96935.00
2023-04-30T13:23:52.898Z,96936.00
2023-04-30T13:26:22.909Z,96936.00
2023-04-30T13:28:50.089Z,96938.00
2023-04-30T13:31:17.331Z,96928.00
2023-04-30T13:33:44.552Z,96929.00
2023-04-30T13:36:11.871Z,96933.00
2023-04-30T13:38:39.482Z,96930.00
2023-04-30T13:41:07.035Z,96930.00
2023-04-30T13:43:34.337Z,96927.00
2023-04-30T13:46:01.930Z,96930.00
2023-04-30T13:48:29.255Z,96924.00
2023-04-30T13:50:56.466Z,96925.00
2023-04-30T13:53:23.687Z,96908.00
2023-04-30T13:55:50.908Z,96912.00
2023-04-30T13:58:18.197Z,96909.00
2023-04-30T14:00:45.407Z,96910.00
2023-04-30T14:03:12.930Z,96907.00
2023-04-30T14:05:40.430Z,96902.00
2023-04-30T14:08:07.703Z,96900.00
2023-04-30T14:10:34.924Z,96896.00
2023-04-30T14:13:02.148Z,96891.00
2023-04-30T14:15:32.319Z,96893.00
2023-04-30T14:18:00.571Z,96891.00
2023-04-30T14:20:27.915Z,96902.00
2023-04-30T14:22:55.093Z,96911.00
2023-04-30T14:25:22.335Z,96910.00
2023-04-30T14:27:49.483Z,96894.00
2023-04-30T14:30:16.666Z,96900.00
2023-04-30T14:32:43.871Z,96896.00
2023-04-30T14:35:11.198Z,96899.00
2023-04-30T14:37:38.410Z,96901.00
2023-04-30T14:40:07.935Z,96896.00
2023-04-30T14:42:35.166Z,96900.00
2023-04-30T14:45:02.409Z,96894.00
2023-04-30T14:47:29.779Z,96892.00
2023-04-30T14:49:58.848Z,96887.00
2023-04-30T14:52:26.101Z,96879.00
2023-04-30T14:54:53.436Z,96884.00
2023-04-30T14:57:20.715Z,96880.00
2023-04-30T14:59:47.959Z,96869.00
2023-04-30T15:02:15.181Z,96883.00
2023-04-30T15:04:46.039Z,96871.00
2023-04-30T15:07:13.254Z,96880.00
2023-04-30T15:09:40.848Z,96879.00
2023-04-30T15:12:08.046Z,96871.00
2023-04-30T15:14:35.238Z,96872.00
2023-04-30T15:17:02.550Z,96868.00
2023-04-30T15:19:35.098Z,96871.00
2023-04-30T15:22:05.122Z,96866.00
2023-04-30T15:24:32.431Z,96873.00
2023-04-30T15:27:02.455Z,96868.00
2023-04-30T15:29:29.749Z,96869.00
2023-04-30T15:32:00.843Z,96868.00
2023-04-30T15:34:28.349Z,96869.00
2023-04-30T15:37:00.715Z,96864.00
2023-04-30T15:39:30.002Z,96864.00
2023-04-30T15:42:08.696Z,96871.00
2023-04-30T15:44:38.743Z,96868.00
2023-04-30T15:47:14.682Z,96861.00
2023-04-30T15:49:43.638Z,96860.00
2023-04-30T15:52:28.544Z,96852.00
2023-04-30T15:55:07.532Z,96859.00
2023-04-30T15:57:44.880Z,96869.00
2023-04-30T16:00:16.575Z,96867.00
2023-04-30T16:02:47.255Z,96861.00
2023-04-30T16:05:30.030Z,96865.00
2023-04-30T16:07:57.794Z,96857.00
2023-04-30T16:10:28.629Z,96861.00
2023-04-30T16:13:02.163Z,96862.00
2023-04-30T16:15:36.187Z,96866.00
2023-04-30T16:18:10.093Z,96872.00
2023-04-30T16:20:38.125Z,96866.00
2023-04-30T16:23:17.844Z,96873.00
2023-04-30T16:25:49.780Z,96871.00
2023-04-30T16:28:23.831Z,96864.00
2023-04-30T16:30:51.687Z,96869.00
2023-04-30T16:33:43.361Z,96871.00
2023-04-30T16:36:11.077Z,96874.00
2023-04-30T16:38:38.251Z,96871.00
2023-04-30T16:41:05.563Z,96873.00
2023-04-30T16:43:32.733Z,96872.00
2023-04-30T16:45:59.905Z,96876.00
2023-04-30T16:48:27.078Z,96878.00
2023-04-30T16:50:54.286Z,96868.00
2023-04-30T16:53:21.839Z,96871.00
2023-04-30T16:55:56.034Z,96869.00
2023-04-30T16:58:33.676Z,96871.00
2023-04-30T17:01:08.822Z,96869.00
2023-04-30T17:03:42.106Z,96875.00
2023-04-30T17:06:10.099Z,96874.00
2023-04-30T17:08:45.011Z,96881.00
2023-04-30T17:11:21.385Z,96876.00
2023-04-30T17:13:53.528Z,96877.00
2023-04-30T17:16:22.518Z,96881.00
2023-04-30T17:18:50.282Z,96879.00
2023-04-30T17:21:20.610Z,96873.00
2023-04-30T17:23:47.806Z,96877.00
2023-04-30T17:26:14.999Z,96878.00
2023-04-30T17:28:42.251Z,96876.00
2023-04-30T17:31:09.599Z,96880.00
2023-04-30T17:33:36.910Z,96878.00
2023-04-30T17:36:04.576Z,96877.00
2023-04-30T17:38:32.153Z,96880.00
2023-04-30T17:40:59.368Z,96888.00
2023-04-30T17:43:26.568Z,96887.00
2023-04-30T17:45:54.349Z,96886.00
2023-04-30T17:48:21.830Z,96887.00
2023-04-30T17:50:49.077Z,96882.00
2023-04-30T17:53:16.320Z,96880.00
2023-04-30T17:55:43.506Z,96875.00
2023-04-30T17:58:11.461Z,96888.00
2023-04-30T18:00:40.396Z,96894.00
2023-04-30T18:03:08.084Z,96890.00
2023-04-30T18:05:35.887Z,96892.00
2023-04-30T18:08:03.446Z,96894.00
2023-04-30T18:10:30.776Z,96888.00
2023-04-30T18:13:01.412Z,96883.00
2023-04-30T18:15:29.353Z,96886.00
2023-04-30T18:17:56.809Z,96879.00
2023-04-30T18:20:24.022Z,96890.00
2023-04-30T18:22:51.696Z,96883.00
2023-04-30T18:25:19.127Z,96881.00
2023-04-30T18:27:46.320Z,96885.00
2023-04-30T18:30:13.683Z,96885.00
2023-04-30T18:32:41.961Z,96889.00
2023-04-30T18:35:10.116Z,96886.00
2023-04-30T18:37:37.288Z,96882.00
2023-04-30T18:40:05.047Z,96886.00
2023-04-30T18:42:33.289Z,96879.00
2023-04-30T18:45:01.156Z,96879.00
2023-04-30T18:47:28.369Z,96884.00
2023-04-30T18:49:56.135Z,96886.00
2023-04-30T18:52:23.902Z,96883.00
2023-04-30T18:54:51.105Z,96888.00
2023-04-30T18:57:18.626Z,96891.00
2023-04-30T18:59:45.793Z,96884.00
2023-04-30T19:02:13.575Z,96887.00
2023-04-30T19:04:40.769Z,96885.00
2023-04-30T19:07:08.377Z,96876.00
2023-04-30T19:09:36.945Z,96883.00
2023-04-30T19:12:04.271Z,96883.00
2023-04-30T19:14:31.512Z,96890.00
2023-04-30T19:17:00.214Z,96879.00
2023-04-30T19:19:27.815Z,96887.00
2023-04-30T19:21:55.142Z,96885.00
2023-04-30T19:24:23.642Z,96889.00
2023-04-30T19:26:51.658Z,96894.00
2023-04-30T19:29:19.416Z,96886.00
2023-04-30T19:31:46.810Z,96891.00
2023-04-30T19:34:14.048Z,96890.00
2023-04-30T19:36:44.292Z,96892.00
2023-04-30T19:39:11.936Z,96886.00
2023-04-30T19:41:39.321Z,96894.00
2023-04-30T19:44:07.890Z,96896.00
2023-04-30T19:46:35.522Z,96901.00
2023-04-30T19:49:03.904Z,96895.00
2023-04-30T19:51:31.871Z,96897.00
2023-04-30T19:53:59.292Z,96896.00
2023-04-30T19:56:26.556Z,96893.00
2023-04-30T19:58:53.908Z,96877.00
2023-04-30T20:01:21.229Z,96882.00
2023-04-30T20:03:48.541Z,96888.00
2023-04-30T20:06:15.884Z,96891.00
2023-04-30T20:08:43.083Z,96893.00
2023-04-30T20:11:10.243Z,96897.00
2023-04-30T20:13:37.417Z,96891.00
2023-04-30T20:16:04.815Z,96892.00
2023-04-30T20:18:32.318Z,96889.00
2023-04-30T20:20:59.586Z,96895.00
2023-04-30T20:23:26.794Z,96893.00
2023-04-30T20:25:55.025Z,96892.00
2023-04-30T20:28:22.247Z,96894.00
2023-04-30T20:30:49.521Z,96895.00
2023-04-30T20:33:17.414Z,96893.00
2023-04-30T20:35:46.144Z,96889.00
2023-04-30T20:38:13.850Z,96884.00
2023-04-30T20:40:41.118Z,96886.00
2023-04-30T20:43:12.733Z,96882.00
2023-04-30T20:45:42.404Z,96885.00
2023-04-30T20:48:09.806Z,96878.00
2023-04-30T20:50:38.057Z,96885.00
2023-04-30T20:53:05.622Z,96891.00
2023-04-30T20:55:32.901Z,96885.00
2023-04-30T20:58:00.091Z,96886.00
2023-04-30T21:00:27.718Z,96881.00
2023-04-30T21:02:54.985Z,96883.00
2023-04-30T21:05:22.223Z,96878.00
2023-04-30T21:07:49.413Z,96884.00
2023-04-30T21:10:16.593Z,96880.00
2023-04-30T21:12:43.773Z,96877.00
2023-04-30T21:15:11.532Z,96874.00
2023-04-30T21:17:38.794Z,96887.00
2023-04-30T21:20:06.538Z,96886.00
2023-04-30T21:22:34.247Z,96879.00
2023-04-30T21:25:01.461Z,96879.00
2023-04-30T21:27:28.613Z,96879.00
2023-04-30T21:29:56.086Z,96881.00
2023-04-30T21:32:23.514Z,96882.00
2023-04-30T21:34:50.784Z,96879.00
2023-04-30T21:37:18.262Z,96879.00
2023-04-30T21:39:45.517Z,96880.00
2023-04-30T21:42:12.697Z,96878.00
2023-04-30T21:44:39.965Z,96883.00
2023-04-30T21:47:10.517Z,96878.00
2023-04-30T21:49:37.727Z,96876.00
2023-04-30T21:52:08.069Z,96878.00
2023-04-30T21:54:35.308Z,96877.00
2023-04-30T21:57:02.662Z,96869.00
2023-04-30T21:59:29.905Z,96871.00
2023-04-30T22:01:57.483Z,96862.00
2023-04-30T22:04:25.414Z,96867.00
2023-04-30T22:06:52.941Z,96866.00
2023-04-30T22:09:20.230Z,96867.00
2023-04-30T22:11:47.389Z,96863.00
2023-04-30T22:14:14.672Z,96863.00
2023-04-30T22:16:41.902Z,96862.00
2023-04-30T22:19:09.322Z,96860.00
2023-04-30T22:21:36.560Z,96861.00
2023-04-30T22:24:03.832Z,96856.00
2023-04-30T22:26:31.653Z,96851.00
2023-04-30T22:28:58.879Z,96854.00
2023-04-30T22:31:26.265Z,96856.00
2023-04-30T22:33:53.455Z,96848.00
2023-04-30T22:36:20.657Z,96856.00
2023-04-30T22:41:15.721Z,96849.00
2023-04-30T22:43:42.987Z,96843.00
2023-04-30T22:46:10.745Z,96835.00
2023-04-30T22:48:38.215Z,96843.00
2023-04-30T22:51:06.714Z,96847.00
2023-04-30T22:53:34.398Z,96841.00
2023-04-30T22:56:01.746Z,96843.00
2023-04-30T22:58:28.906Z,96837.00
2023-04-30T23:00:56.137Z,96836.00
2023-04-30T23:03:23.380Z,96840.00
2023-04-30T23:05:51.545Z,96843.00
2023-04-30T23:08:19.127Z,96844.00
2023-04-30T23:10:46.328Z,96839.00
2023-04-30T23:13:14.370Z,96846.00
2023-04-30T23:15:43.374Z,96847.00
2023-04-30T23:18:10.770Z,96846.00
2023-04-30T23:20:39.522Z,96845.00
2023-04-30T23:23:06.671Z,96847.00
2023-04-30T23:25:33.851Z,96847.00
2023-04-30T23:28:01.180Z,96836.00
2023-04-30T23:30:28.379Z,96837.00
2023-04-30T23:32:55.736Z,96838.00
2023-04-30T23:35:23.124Z,96837.00
2023-04-30T23:37:50.462Z,96829.00
2023-04-30T23:40:19.664Z,96837.00
2023-04-30T23:42:46.832Z,96838.00
2023-04-30T23:45:14.042Z,96827.00
2023-04-30T23:47:41.248Z,96826.00
2023-04-30T23:50:09.223Z,96822.00
2023-04-30T23:52:36.779Z,96826.00
2023-04-30T23:55:04.820Z,96830.00
2023-04-30T23:57:32.276Z,96822.00
2023-04-30T23:59:59.749Z,96819.00
